Terminal Aerodrome Forecast
Issued by NWS Wichita, KS

Home | Current Version | Previous Version | Text Only | Print | Product List | Glossary Off
Versions: 1 2 3 4 5 6 7 8 9 10 11 12 13 14 15 16 17 18 19 20 21 22

000
FTUS43 KICT 161135
TAFICT
TAF
KICT 161135Z 1612/1712 15007KT P6SM SCT012 BKN100
      TEMPO 1613/1614 4SM BR BKN012
     FM161600 15014G20KT P6SM SCT020 BKN035
     FM170100 13009KT P6SM SCT030 OVC100
      TEMPO 1708/1712 4SM BR OVC015=

USA.gov is the U.S. government's official web portal to all federal, state and local government web resources and services.